Grove City, Minnesota
Current Conditions -  °F | °C
As of 4:13 AM on Saturday 22 Nov 2014 (Local Time) from KLJF Reporting Station
Clear Clear  
Wind Chill: 30°   Ceiling: Unl
Heat Index: 30°   Visibility: 7mi
Dew Point: 28°   Wind: 3mph
Humidity: 93%   Direction: 210°SSW
Pressure: 29.76"   Gusts: NA
Location:  45.15°N, 94.68°W
Report Text: KLJF 221013Z AUTO 21003KT 7SM CLR M01/M02 A2976 RMK AO2
Loading
Personal Weather Stations






























Interactive Weather Map New forecast layout! Learn more

10-Day Weather Forecast

Advertisements
Track Severe Weather on mobile